createdAt,value
2018-05-12T00:01:51.131Z,50.50
2018-05-12T00:04:57.390Z,42.93
2018-05-12T00:08:02.557Z,50.43
2018-05-12T00:11:08.759Z,58.60
2018-05-12T00:14:13.940Z,67.43
2018-05-12T00:17:20.265Z,58.80
2018-05-12T00:20:27.028Z,54.83
2018-05-12T00:23:32.962Z,61.77
2018-05-12T00:26:39.250Z,65.43
2018-05-12T00:29:46.217Z,68.30
2018-05-12T00:32:52.213Z,77.13
2018-05-12T00:36:07.736Z,52.73
2018-05-12T00:39:13.679Z,56.83
2018-05-12T00:42:19.692Z,56.13
2018-05-12T00:45:25.208Z,59.17
2018-05-12T00:48:32.399Z,78.80
2018-05-12T00:51:37.654Z,67.33
2018-05-12T00:54:44.076Z,83.13
2018-05-12T00:57:51.477Z,69.30
2018-05-12T01:00:57.735Z,62.97
2018-05-12T01:04:03.040Z,65.83
2018-05-12T01:07:09.328Z,79.27
2018-05-12T01:10:15.556Z,68.37
2018-05-12T01:13:26.846Z,88.40
2018-05-12T01:16:33.050Z,80.30
2018-05-12T01:19:39.288Z,74.83
2018-05-12T01:22:46.695Z,74.10
2018-05-12T01:25:52.810Z,72.97
2018-05-12T01:28:58.843Z,86.20
2018-05-12T01:32:05.081Z,85.90
2018-05-12T01:35:11.148Z,75.03
2018-05-12T01:38:17.710Z,81.07
2018-05-12T01:41:23.705Z,93.23
2018-05-12T01:44:31.200Z,99.07
2018-05-12T01:47:37.358Z,100.97
2018-05-12T01:50:43.362Z,113.17
2018-05-12T01:53:51.177Z,135.33
2018-05-12T01:56:56.506Z,118.67
2018-05-12T02:00:02.960Z,138.30
2018-05-12T02:03:08.597Z,128.47
2018-05-12T02:06:14.997Z,145.60
2018-05-12T02:09:22.164Z,158.87
2018-05-12T02:12:28.414Z,149.23
2018-05-12T02:15:34.499Z,138.40
2018-05-12T02:18:40.620Z,140.50
2018-05-12T02:21:47.144Z,126.43
2018-05-12T02:24:52.875Z,132.67
2018-05-12T02:27:58.306Z,161.63
2018-05-12T02:31:04.820Z,132.37
2018-05-12T02:34:11.248Z,132.87
2018-05-12T02:37:17.402Z,144.30
2018-05-12T02:40:23.401Z,144.30
2018-05-12T02:43:28.884Z,144.40
2018-05-12T02:46:35.094Z,131.67
2018-05-12T02:49:41.366Z,138.53
2018-05-12T02:52:47.705Z,152.70
2018-05-12T02:55:53.997Z,142.07
2018-05-12T02:59:00.198Z,133.73
2018-05-12T03:02:06.356Z,154.87
2018-05-12T03:05:12.506Z,170.90
2018-05-12T03:08:18.678Z,158.00
2018-05-12T03:11:25.302Z,158.07
2018-05-12T03:14:32.174Z,154.73
2018-05-12T03:17:38.108Z,162.50
2018-05-12T03:20:44.308Z,154.80
2018-05-12T03:23:50.237Z,143.37
2018-05-12T03:26:56.046Z,164.80
2018-05-12T03:30:02.976Z,151.27
2018-05-12T03:33:08.615Z,123.90
2018-05-12T03:36:14.935Z,153.90
2018-05-12T03:39:21.405Z,145.27
2018-05-12T03:42:27.610Z,134.23
2018-05-12T03:45:33.707Z,108.50
2018-05-12T03:48:39.236Z,121.80
2018-05-12T03:51:44.510Z,128.17
2018-05-12T03:54:50.210Z,119.03
2018-05-12T03:57:57.597Z,127.07
2018-05-12T04:01:04.425Z,136.60
2018-05-12T04:04:10.684Z,110.03
2018-05-12T04:07:29.271Z,125.83
2018-05-12T04:10:41.014Z,116.17
2018-05-12T04:13:47.640Z,101.60
2018-05-12T04:16:53.088Z,95.40
2018-05-12T04:19:59.324Z,93.43
2018-05-12T04:23:04.619Z,92.27
2018-05-12T04:26:09.998Z,84.27
2018-05-12T04:29:16.363Z,83.50
2018-05-12T04:32:22.533Z,61.17
2018-05-12T04:35:28.779Z,60.10
2018-05-12T04:38:34.871Z,56.60
2018-05-12T04:41:40.941Z,53.40
2018-05-12T04:44:46.912Z,49.67
2018-05-12T04:47:53.193Z,51.80
2018-05-12T04:50:58.427Z,39.47
2018-05-12T04:54:04.419Z,38.03
2018-05-12T04:57:10.514Z,34.17
2018-05-12T05:00:16.815Z,29.53
2018-05-12T05:03:24.068Z,22.60
2018-05-12T05:06:30.321Z,22.37
2018-05-12T05:09:35.717Z,18.37
2018-05-12T05:12:42.329Z,25.03
2018-05-12T05:15:48.457Z,25.40
2018-05-12T05:18:54.589Z,18.67
2018-05-12T05:22:00.994Z,13.00
2018-05-12T05:25:08.261Z,15.37
2018-05-12T05:30:57.248Z,14.80
2018-05-12T05:34:03.442Z,12.43
2018-05-12T05:37:09.732Z,13.53
2018-05-12T05:40:15.722Z,12.73
2018-05-12T05:43:21.955Z,16.03
2018-05-12T05:46:28.092Z,13.37
2018-05-12T05:49:34.228Z,15.60
2018-05-12T05:52:40.532Z,16.40
2018-05-12T05:55:45.817Z,17.00
2018-05-12T05:58:51.862Z,14.50
2018-05-12T06:01:57.398Z,13.63
2018-05-12T06:05:03.278Z,13.37
2018-05-12T06:08:09.408Z,14.17
2018-05-12T06:11:15.532Z,14.53
2018-05-12T06:14:21.731Z,12.47
2018-05-12T06:17:28.102Z,11.60
2018-05-12T06:20:34.206Z,10.60
2018-05-12T06:23:41.268Z,9.70
2018-05-12T06:26:50.435Z,7.00
2018-05-12T06:29:56.933Z,7.13
2018-05-12T06:33:02.072Z,7.13
2018-05-12T06:36:08.042Z,6.27
2018-05-12T06:39:14.231Z,5.73
2018-05-12T06:42:20.258Z,7.30
2018-05-12T06:45:27.049Z,6.70
2018-05-12T06:48:33.517Z,6.50
2018-05-12T06:51:39.104Z,6.17
2018-05-12T06:54:46.391Z,6.70
2018-05-12T06:57:52.818Z,5.77
2018-05-12T07:00:59.655Z,5.70
2018-05-12T07:04:05.892Z,5.90
2018-05-12T07:07:12.220Z,6.17
2018-05-12T07:10:17.953Z,6.40
2018-05-12T07:13:23.937Z,6.17
2018-05-12T07:16:30.203Z,6.00
2018-05-12T07:19:36.488Z,5.03
2018-05-12T07:22:42.780Z,6.53
2018-05-12T07:25:48.927Z,6.73
2018-05-12T07:28:56.146Z,5.97
2018-05-12T07:32:02.475Z,6.73
2018-05-12T07:35:09.498Z,9.27
2018-05-12T07:38:15.581Z,8.67
2018-05-12T07:41:21.702Z,11.50
2018-05-12T07:44:27.916Z,13.77
2018-05-12T07:47:33.867Z,13.20
2018-05-12T07:50:39.719Z,13.37
2018-05-12T07:53:46.021Z,15.17
2018-05-12T07:56:53.111Z,11.80
2018-05-12T07:59:59.146Z,12.93
2018-05-12T08:03:05.108Z,13.50
2018-05-12T08:06:11.203Z,13.60
2018-05-12T08:09:17.230Z,15.27
2018-05-12T08:12:23.409Z,17.80
2018-05-12T08:15:29.534Z,21.83
2018-05-12T08:18:35.460Z,15.03
2018-05-12T08:21:41.362Z,17.70
2018-05-12T08:24:48.478Z,16.77
2018-05-12T08:27:55.492Z,18.27
2018-05-12T08:31:01.352Z,25.10
2018-05-12T08:34:07.381Z,21.37
2018-05-12T08:37:13.381Z,22.43
2018-05-12T08:40:19.487Z,21.90
2018-05-12T08:43:25.408Z,19.33
2018-05-12T08:46:31.295Z,18.43
2018-05-12T08:49:37.430Z,19.83
2018-05-12T08:52:43.238Z,19.60
2018-05-12T08:55:49.523Z,21.73
2018-05-12T08:58:57.396Z,19.20
2018-05-12T09:02:03.726Z,20.17
2018-05-12T09:05:09.686Z,20.27
2018-05-12T09:08:15.677Z,22.00
2018-05-12T09:11:21.645Z,17.83
2018-05-12T09:14:27.730Z,21.00
2018-05-12T09:17:33.788Z,20.40
2018-05-12T09:20:40.323Z,18.73
2018-05-12T09:23:46.591Z,18.97
2018-05-12T09:26:52.940Z,18.80
2018-05-12T09:30:00.101Z,19.93
2018-05-12T09:33:06.143Z,24.50
2018-05-12T09:36:12.213Z,18.73
2018-05-12T09:39:18.444Z,21.67
2018-05-12T09:42:24.875Z,20.23
2018-05-12T09:45:31.283Z,22.13
2018-05-12T09:48:38.009Z,19.20
2018-05-12T09:51:44.027Z,18.37
2018-05-12T09:54:50.158Z,19.27
2018-05-12T09:57:57.469Z,22.63
2018-05-12T10:01:04.307Z,19.73
2018-05-12T10:04:10.209Z,21.77
2018-05-12T10:07:16.595Z,21.53
2018-05-12T10:10:22.581Z,23.53
2018-05-12T10:13:29.589Z,21.43
2018-05-12T10:16:35.449Z,24.07
2018-05-12T10:19:41.510Z,25.70
2018-05-12T10:22:47.513Z,26.20
2018-05-12T10:25:53.361Z,24.10
2018-05-12T10:28:59.619Z,22.43
2018-05-12T10:32:05.745Z,23.60
2018-05-12T10:35:12.820Z,22.57
2018-05-12T10:38:18.654Z,25.07
2018-05-12T10:41:25.009Z,23.33
2018-05-12T10:44:31.069Z,22.40
2018-05-12T10:47:37.277Z,19.83
2018-05-12T10:50:43.317Z,15.00
2018-05-12T10:53:50.046Z,17.57
2018-05-12T10:56:57.341Z,17.03
2018-05-12T11:00:03.378Z,17.60
2018-05-12T11:03:10.380Z,16.20
2018-05-12T11:06:16.594Z,20.60
2018-05-12T11:09:23.655Z,15.53
2018-05-12T11:12:30.825Z,15.90
2018-05-12T11:15:36.371Z,17.93
2018-05-12T11:18:42.696Z,17.07
2018-05-12T11:21:49.640Z,16.63
2018-05-12T11:24:55.562Z,18.13
2018-05-12T11:28:02.471Z,17.73
2018-05-12T11:31:08.862Z,16.23
2018-05-12T11:34:15.889Z,16.43
2018-05-12T11:37:22.765Z,18.57
2018-05-12T11:40:28.880Z,17.47
2018-05-12T11:43:35.740Z,16.20
2018-05-12T11:46:43.244Z,14.03
2018-05-12T11:49:50.506Z,13.10
2018-05-12T11:52:56.656Z,13.17
2018-05-12T11:56:04.961Z,12.77
2018-05-12T11:59:15.649Z,13.13
2018-05-12T12:02:21.514Z,14.40
2018-05-12T12:05:29.769Z,9.27
2018-05-12T12:08:36.948Z,9.47
2018-05-12T12:11:43.990Z,13.43
2018-05-12T12:14:51.005Z,10.30
2018-05-12T12:17:58.149Z,11.90
2018-05-12T12:21:07.711Z,12.17
2018-05-12T12:24:14.862Z,10.90
2018-05-12T12:27:20.735Z,13.43
2018-05-12T12:30:27.019Z,13.67
2018-05-12T12:33:34.001Z,10.63
2018-05-12T12:36:42.144Z,9.53
2018-05-12T12:39:48.291Z,11.07
2018-05-12T12:42:56.145Z,9.43
2018-05-12T12:46:03.154Z,8.07
2018-05-12T12:49:10.254Z,11.30
2018-05-12T12:52:16.623Z,10.47
2018-05-12T12:55:24.718Z,11.43
2018-05-12T12:58:30.751Z,9.93
2018-05-12T13:01:36.640Z,8.73
2018-05-12T13:04:43.753Z,8.00
2018-05-12T13:07:49.960Z,9.33
2018-05-12T13:10:56.388Z,8.10
2018-05-12T13:14:04.280Z,9.00
2018-05-12T13:17:10.406Z,7.73
2018-05-12T13:20:18.964Z,9.23
2018-05-12T13:23:26.735Z,7.80
2018-05-12T13:26:33.373Z,7.87
2018-05-12T13:29:40.214Z,8.50
2018-05-12T13:32:45.934Z,6.60
2018-05-12T13:35:52.033Z,7.90
2018-05-12T13:38:57.965Z,7.97
2018-05-12T13:42:04.057Z,6.20
2018-05-12T13:45:10.183Z,7.30
2018-05-12T13:48:17.380Z,8.20
2018-05-12T13:51:24.526Z,6.93
2018-05-12T13:54:31.120Z,8.10
2018-05-12T13:57:37.542Z,6.60
2018-05-12T14:00:43.485Z,6.57
2018-05-12T14:03:49.989Z,6.50
2018-05-12T14:06:56.438Z,6.60
2018-05-12T14:10:02.714Z,5.87
2018-05-12T14:13:09.464Z,6.33
2018-05-12T14:16:16.611Z,5.67
2018-05-12T14:19:22.712Z,7.10
2018-05-12T14:22:28.504Z,6.47
2018-05-12T14:25:35.484Z,5.90
2018-05-12T14:28:41.412Z,5.57
2018-05-12T14:31:48.444Z,5.40
2018-05-12T14:34:54.623Z,5.17
2018-05-12T14:38:00.486Z,4.67
2018-05-12T14:41:05.845Z,5.40
2018-05-12T14:44:14.008Z,4.40
2018-05-12T14:47:22.878Z,7.47
2018-05-12T14:50:30.061Z,5.13
2018-05-12T14:53:36.727Z,5.23
2018-05-12T14:56:45.481Z,5.30
2018-05-12T14:59:51.717Z,4.80
2018-05-12T15:03:00.480Z,5.80
2018-05-12T15:06:07.250Z,6.90
2018-05-12T15:09:14.389Z,5.60
2018-05-12T15:12:20.729Z,5.10
2018-05-12T15:15:27.500Z,5.47
2018-05-12T15:18:32.879Z,5.10
2018-05-12T15:21:40.766Z,5.40
2018-05-12T15:24:47.467Z,5.20
2018-05-12T15:27:53.889Z,5.20
2018-05-12T15:31:01.189Z,5.10
2018-05-12T15:34:08.936Z,5.07
2018-05-12T15:37:14.829Z,4.57
2018-05-12T15:40:25.864Z,4.90
2018-05-12T15:43:33.051Z,5.00
2018-05-12T15:46:41.237Z,4.30
2018-05-12T15:49:48.737Z,4.73
2018-05-12T15:53:01.671Z,5.17
2018-05-12T15:56:13.666Z,5.10
2018-05-12T15:59:21.491Z,5.97
2018-05-12T16:02:27.515Z,5.77
2018-05-12T16:05:34.390Z,4.93
2018-05-12T16:08:40.996Z,5.73
2018-05-12T16:11:47.788Z,5.23
2018-05-12T16:14:54.755Z,5.40
2018-05-12T16:18:00.772Z,4.87
2018-05-12T16:21:06.702Z,4.60
2018-05-12T16:24:13.591Z,5.53
2018-05-12T16:27:19.475Z,5.53
2018-05-12T16:30:25.455Z,5.67
2018-05-12T16:33:31.467Z,5.23
2018-05-12T16:36:37.730Z,6.20
2018-05-12T16:39:43.452Z,5.43
2018-05-12T16:42:57.335Z,6.63
2018-05-12T16:46:04.480Z,6.10
2018-05-12T16:49:11.307Z,6.27
2018-05-12T16:52:17.268Z,6.17
2018-05-12T16:55:22.990Z,5.50
2018-05-12T16:58:29.803Z,6.37
2018-05-12T17:01:35.652Z,5.90
2018-05-12T17:04:41.629Z,5.97
2018-05-12T17:07:47.808Z,5.37
2018-05-12T17:10:53.838Z,5.87
2018-05-12T17:13:59.915Z,5.50
2018-05-12T17:17:06.921Z,6.00
2018-05-12T17:20:12.666Z,6.40
2018-05-12T17:23:18.920Z,6.90
2018-05-12T17:26:25.144Z,7.20
2018-05-12T17:29:31.009Z,6.10
2018-05-12T17:32:37.184Z,6.40
2018-05-12T17:35:43.326Z,6.43
2018-05-12T17:38:50.318Z,7.23
2018-05-12T17:41:57.457Z,6.10
2018-05-12T17:45:03.696Z,6.17
2018-05-12T17:48:11.387Z,5.37
2018-05-12T17:51:18.321Z,6.63
2018-05-12T17:54:24.466Z,6.80
2018-05-12T17:57:31.474Z,7.27
2018-05-12T18:00:38.234Z,6.77
2018-05-12T18:03:44.499Z,8.67
2018-05-12T18:06:51.476Z,6.03
2018-05-12T18:09:57.749Z,6.10
2018-05-12T18:13:04.551Z,6.53
2018-05-12T18:16:10.469Z,5.77
2018-05-12T18:19:16.914Z,6.93
2018-05-12T18:22:25.260Z,6.77
2018-05-12T18:25:31.943Z,5.50
2018-05-12T18:28:39.224Z,6.40
2018-05-12T18:31:45.832Z,6.40
2018-05-12T18:34:51.864Z,5.70
2018-05-12T18:37:57.931Z,6.37
2018-05-12T18:41:03.936Z,6.77
2018-05-12T18:44:10.179Z,7.07
2018-05-12T18:47:16.613Z,6.80
2018-05-12T18:50:25.926Z,7.50
2018-05-12T18:53:31.983Z,7.20
2018-05-12T18:56:37.961Z,6.07
2018-05-12T18:59:43.958Z,6.30
2018-05-12T19:02:50.018Z,5.93
2018-05-12T19:05:56.081Z,6.60
2018-05-12T19:09:01.979Z,5.77
2018-05-12T19:12:08.395Z,5.60
2018-05-12T19:15:14.728Z,6.33
2018-05-12T19:18:20.708Z,5.80
2018-05-12T19:21:26.943Z,5.43
2018-05-12T19:24:33.111Z,4.97
2018-05-12T19:27:39.168Z,5.47
2018-05-12T19:30:45.637Z,7.43
2018-05-12T19:33:52.513Z,7.07
2018-05-12T19:36:59.744Z,6.17
2018-05-12T19:40:05.663Z,5.57
2018-05-12T19:43:15.270Z,5.67
2018-05-12T19:46:21.207Z,5.70
2018-05-12T19:49:27.570Z,6.10
2018-05-12T19:52:33.632Z,5.40
2018-05-12T19:55:40.117Z,5.23
2018-05-12T19:58:46.800Z,4.73
2018-05-12T20:01:54.484Z,5.97
2018-05-12T20:05:01.471Z,8.20
2018-05-12T20:08:12.450Z,5.47
2018-05-12T20:11:18.465Z,5.70
2018-05-12T20:14:24.446Z,6.40
2018-05-12T20:17:37.534Z,7.43
2018-05-12T20:20:45.260Z,5.77
2018-05-12T20:23:54.150Z,9.63
2018-05-12T20:26:59.953Z,8.47
2018-05-12T20:30:07.089Z,7.40
2018-05-12T20:33:14.176Z,5.90
2018-05-12T20:36:20.968Z,7.57
2018-05-12T20:39:27.050Z,6.47
2018-05-12T20:42:33.010Z,6.40
2018-05-12T20:45:38.936Z,6.10
2018-05-12T20:48:45.454Z,6.97
2018-05-12T20:51:52.516Z,7.80
2018-05-12T20:54:59.323Z,6.60
2018-05-12T20:58:05.636Z,6.50
2018-05-12T21:01:11.468Z,6.07
2018-05-12T21:04:17.432Z,7.50
2018-05-12T21:07:23.517Z,6.33
2018-05-12T21:10:30.351Z,6.87
2018-05-12T21:13:36.359Z,7.13
2018-05-12T21:16:41.515Z,7.87
2018-05-12T21:19:47.818Z,6.73
2018-05-12T21:22:53.877Z,6.50
2018-05-12T21:25:59.864Z,6.60
2018-05-12T21:29:06.606Z,6.97
2018-05-12T21:32:15.433Z,6.70
2018-05-12T21:35:41.200Z,7.20
2018-05-12T21:38:47.527Z,8.10
2018-05-12T21:41:53.427Z,8.97
2018-05-12T21:45:01.210Z,7.10
2018-05-12T21:48:08.222Z,6.80
2018-05-12T21:51:14.979Z,7.27
2018-05-12T21:54:20.873Z,8.30
2018-05-12T21:57:27.571Z,7.13
2018-05-12T22:00:33.690Z,6.87
2018-05-12T22:03:39.738Z,7.70
2018-05-12T22:06:45.811Z,8.37
2018-05-12T22:09:52.208Z,6.73
2018-05-12T22:12:58.333Z,7.27
2018-05-12T22:16:04.456Z,8.10
2018-05-12T22:19:10.416Z,10.43
2018-05-12T22:22:16.514Z,7.60
2018-05-12T22:25:22.869Z,7.23
2018-05-12T22:28:29.687Z,7.50
2018-05-12T22:31:38.703Z,8.00
2018-05-12T22:34:44.663Z,8.07
2018-05-12T22:37:50.473Z,7.63
2018-05-12T22:40:56.402Z,7.60
2018-05-12T22:44:02.579Z,7.20
2018-05-12T22:47:08.557Z,9.60
2018-05-12T22:50:14.446Z,9.10
2018-05-12T22:53:20.624Z,8.93
2018-05-12T22:56:26.979Z,9.13
2018-05-12T22:59:34.523Z,9.20
2018-05-12T23:02:40.635Z,10.20
2018-05-12T23:05:46.629Z,9.57
2018-05-12T23:08:52.584Z,10.80
2018-05-12T23:11:58.592Z,12.20
2018-05-12T23:15:04.839Z,11.53
2018-05-12T23:18:10.963Z,11.20
2018-05-12T23:21:17.364Z,10.50
2018-05-12T23:24:23.639Z,12.57
2018-05-12T23:27:29.804Z,12.50
2018-05-12T23:30:36.040Z,10.47
2018-05-12T23:33:41.905Z,10.43
2018-05-12T23:36:47.911Z,11.57
2018-05-12T23:39:54.924Z,11.37
2018-05-12T23:43:01.073Z,10.37
2018-05-12T23:46:07.256Z,11.27
2018-05-12T23:49:13.432Z,12.87
2018-05-12T23:52:19.361Z,13.03
2018-05-12T23:55:25.213Z,10.33
2018-05-12T23:58:31.855Z,10.70
